createdAt,value
2023-05-19T00:02:06.183Z,17.83
2023-05-19T00:04:33.858Z,18.20
2023-05-19T00:07:02.033Z,16.08
2023-05-19T00:09:28.988Z,18.30
2023-05-19T00:11:56.969Z,17.08
2023-05-19T00:14:23.911Z,16.07
2023-05-19T00:16:50.987Z,16.67
2023-05-19T00:19:17.870Z,17.10
2023-05-19T00:21:44.701Z,17.15
2023-05-19T00:24:11.440Z,14.70
2023-05-19T00:26:38.195Z,18.50
2023-05-19T00:29:05.525Z,16.90
2023-05-19T00:31:34.255Z,16.40
2023-05-19T00:36:28.016Z,17.88
2023-05-19T00:38:54.680Z,16.35
2023-05-19T00:41:21.302Z,16.02
2023-05-19T00:43:48.046Z,17.77
2023-05-19T00:46:14.878Z,16.55
2023-05-19T00:48:41.961Z,18.35
2023-05-19T00:51:08.697Z,17.13
2023-05-19T00:53:35.802Z,22.08
2023-05-19T00:56:03.470Z,18.95
2023-05-19T00:58:31.216Z,16.63
2023-05-19T01:01:04.502Z,19.67
2023-05-19T01:03:32.753Z,16.67
2023-05-19T01:06:01.876Z,15.88
2023-05-19T01:08:29.639Z,20.55
2023-05-19T01:10:56.340Z,18.70
2023-05-19T01:13:23.479Z,15.77
2023-05-19T01:16:07.134Z,21.27
2023-05-19T01:18:58.783Z,15.85
2023-05-19T01:21:56.430Z,17.63
2023-05-19T01:24:56.965Z,17.83
2023-05-19T01:27:43.380Z,18.85
2023-05-19T01:30:26.555Z,20.42
2023-05-19T01:32:55.472Z,21.25
2023-05-19T01:37:54.616Z,18.52
2023-05-19T01:40:23.141Z,16.27
2023-05-19T01:42:52.688Z,17.88
2023-05-19T01:45:20.308Z,20.70
2023-05-19T01:47:50.949Z,17.33
2023-05-19T01:50:17.734Z,19.33
2023-05-19T01:52:44.415Z,21.05
2023-05-19T01:55:11.279Z,16.35
2023-05-19T01:58:06.600Z,20.08
2023-05-19T02:00:48.774Z,17.27
2023-05-19T02:03:30.445Z,20.13
2023-05-19T02:06:12.439Z,17.75
2023-05-19T02:08:59.219Z,17.27
2023-05-19T02:11:52.241Z,16.45
2023-05-19T02:14:30.450Z,20.35
2023-05-19T02:16:59.413Z,18.35
2023-05-19T02:19:31.725Z,20.42
2023-05-19T02:21:58.665Z,19.65
2023-05-19T02:24:25.450Z,19.15
2023-05-19T02:26:54.007Z,18.25
2023-05-19T02:29:21.167Z,16.30
2023-05-19T02:31:48.245Z,18.55
2023-05-19T02:34:15.289Z,19.10
2023-05-19T02:36:45.847Z,19.75
2023-05-19T02:39:13.152Z,18.45
2023-05-19T02:41:39.837Z,17.52
2023-05-19T02:44:06.727Z,16.38
2023-05-19T02:46:33.935Z,19.08
2023-05-19T02:49:00.704Z,20.35
2023-05-19T02:51:27.356Z,18.00
2023-05-19T02:53:54.284Z,18.15
2023-05-19T02:56:21.845Z,16.75
2023-05-19T02:58:48.633Z,17.15
2023-05-19T03:01:16.764Z,18.98
2023-05-19T03:03:43.508Z,19.70
2023-05-19T03:06:10.226Z,17.35
2023-05-19T03:08:36.887Z,16.83
2023-05-19T03:11:03.717Z,16.65
2023-05-19T03:13:30.450Z,24.33
2023-05-19T03:15:58.934Z,19.75
2023-05-19T03:18:28.971Z,19.60
2023-05-19T03:20:55.875Z,19.85
2023-05-19T03:23:22.672Z,20.27
2023-05-19T03:25:49.415Z,21.23
2023-05-19T03:28:16.107Z,21.52
2023-05-19T03:30:42.857Z,19.75
2023-05-19T03:33:09.734Z,15.77
2023-05-19T03:35:36.494Z,21.65
2023-05-19T03:38:03.198Z,18.17
2023-05-19T03:40:29.938Z,22.58
2023-05-19T03:42:56.926Z,17.63
2023-05-19T03:45:23.561Z,18.02
2023-05-19T03:47:50.254Z,18.90
2023-05-19T03:50:16.967Z,16.83
2023-05-19T03:52:45.698Z,23.85
2023-05-19T03:55:14.920Z,18.98
2023-05-19T03:57:41.815Z,17.85
2023-05-19T04:00:11.373Z,14.80
2023-05-19T04:02:38.505Z,18.60
2023-05-19T04:05:05.480Z,25.77
2023-05-19T04:07:32.163Z,19.48
2023-05-19T04:09:58.903Z,16.30
2023-05-19T04:12:25.776Z,20.30
2023-05-19T04:14:52.424Z,17.30
2023-05-19T04:17:19.098Z,18.67
2023-05-19T04:19:45.783Z,18.40
2023-05-19T04:22:12.428Z,20.67
2023-05-19T04:24:39.152Z,20.90
2023-05-19T04:27:06.137Z,22.08
2023-05-19T04:29:32.814Z,20.50
2023-05-19T04:32:01.157Z,18.17
2023-05-19T04:34:28.849Z,19.27
2023-05-19T04:36:55.731Z,18.58
2023-05-19T04:39:22.348Z,18.15
2023-05-19T04:41:48.969Z,20.33
2023-05-19T04:44:18.580Z,18.35
2023-05-19T04:46:46.244Z,19.67
2023-05-19T04:49:12.883Z,19.63
2023-05-19T04:51:41.686Z,18.13
2023-05-19T04:54:09.252Z,20.25
2023-05-19T04:56:36.765Z,20.15
2023-05-19T04:59:03.458Z,22.70
2023-05-19T05:01:31.476Z,22.17
2023-05-19T05:03:59.280Z,19.77
2023-05-19T05:06:26.683Z,20.42
2023-05-19T05:08:53.559Z,17.65
2023-05-19T05:11:20.788Z,20.40
2023-05-19T05:13:47.944Z,19.00
2023-05-19T05:16:15.287Z,18.58
2023-05-19T05:18:44.801Z,19.17
2023-05-19T05:21:12.450Z,16.33
2023-05-19T05:23:39.321Z,15.38
2023-05-19T05:26:17.570Z,16.90
2023-05-19T05:28:44.259Z,17.75
2023-05-19T05:31:10.899Z,16.63
2023-05-19T05:33:38.854Z,18.13
2023-05-19T05:36:05.840Z,18.83
2023-05-19T05:38:32.596Z,21.30
2023-05-19T05:40:59.244Z,20.15
2023-05-19T05:43:25.963Z,17.65
2023-05-19T05:45:52.711Z,17.88
2023-05-19T05:48:19.801Z,14.93
2023-05-19T05:50:46.848Z,17.85
2023-05-19T05:53:21.527Z,18.23
2023-05-19T05:55:48.632Z,19.77
2023-05-19T05:58:17.166Z,16.90
2023-05-19T06:00:43.852Z,17.63
2023-05-19T06:03:11.582Z,19.02
2023-05-19T06:05:38.706Z,21.33
2023-05-19T06:08:05.675Z,19.38
2023-05-19T06:10:32.753Z,19.17
2023-05-19T06:13:00.010Z,18.70
2023-05-19T06:15:26.907Z,16.67
2023-05-19T06:17:54.867Z,16.55
2023-05-19T06:20:21.626Z,16.50
2023-05-19T06:22:48.292Z,17.75
2023-05-19T06:25:15.032Z,13.93
2023-05-19T06:27:41.852Z,18.42
2023-05-19T06:30:09.151Z,16.42
2023-05-19T06:32:35.905Z,18.52
2023-05-19T06:35:02.734Z,18.27
2023-05-19T06:37:29.428Z,17.08
2023-05-19T06:39:56.185Z,16.83
2023-05-19T06:42:23.128Z,18.67
2023-05-19T06:44:51.555Z,17.92
2023-05-19T06:47:19.248Z,17.42
2023-05-19T06:49:46.508Z,16.83
2023-05-19T06:52:13.268Z,17.95
2023-05-19T06:54:39.989Z,16.75
2023-05-19T06:57:06.737Z,15.75
2023-05-19T06:59:33.447Z,15.65
2023-05-19T07:02:00.315Z,17.30
2023-05-19T07:04:27.478Z,17.65
2023-05-19T07:06:55.170Z,17.02
2023-05-19T07:09:22.086Z,15.73
2023-05-19T07:11:48.729Z,15.98
2023-05-19T07:14:15.605Z,19.45
2023-05-19T07:16:42.282Z,18.00
2023-05-19T07:19:09.095Z,16.88
2023-05-19T07:21:36.067Z,16.73
2023-05-19T07:24:02.870Z,16.30
2023-05-19T07:26:29.724Z,17.98
2023-05-19T07:28:56.994Z,17.00
2023-05-19T07:31:23.820Z,18.58
2023-05-19T07:33:53.030Z,14.50
2023-05-19T07:36:21.148Z,16.58
2023-05-19T07:38:48.472Z,18.67
2023-05-19T07:41:15.133Z,18.20
2023-05-19T07:43:42.984Z,17.60
2023-05-19T07:46:09.622Z,16.30
2023-05-19T07:48:36.928Z,15.07
2023-05-19T07:51:04.007Z,17.92
2023-05-19T07:53:30.760Z,16.90
2023-05-19T07:55:58.623Z,15.25
2023-05-19T07:58:25.666Z,17.02
2023-05-19T08:00:53.445Z,16.02
2023-05-19T08:03:21.043Z,18.60
2023-05-19T08:05:48.073Z,18.02
2023-05-19T08:08:16.962Z,15.25
2023-05-19T08:10:43.696Z,18.38
2023-05-19T08:13:10.624Z,19.17
2023-05-19T08:15:37.435Z,18.63
2023-05-19T08:18:05.495Z,15.25
2023-05-19T08:20:33.131Z,16.33
2023-05-19T08:23:00.142Z,16.33
2023-05-19T08:25:26.752Z,16.38
2023-05-19T08:27:53.593Z,14.90
2023-05-19T08:30:20.345Z,18.40
2023-05-19T08:32:48.884Z,14.60
2023-05-19T08:35:15.878Z,17.45
2023-05-19T08:37:42.525Z,13.63
2023-05-19T08:40:16.137Z,17.65
2023-05-19T08:42:43.039Z,17.63
2023-05-19T08:45:10.251Z,15.57
2023-05-19T08:47:37.372Z,15.80
2023-05-19T08:50:07.974Z,16.42
2023-05-19T08:52:53.610Z,16.42
2023-05-19T08:55:34.621Z,16.45
2023-05-19T08:58:03.542Z,18.08
2023-05-19T09:00:30.673Z,15.30
2023-05-19T09:03:06.111Z,20.15
2023-05-19T09:05:44.067Z,18.77
2023-05-19T09:08:11.139Z,15.55
2023-05-19T09:10:37.769Z,15.70
2023-05-19T09:13:05.550Z,14.98
2023-05-19T09:15:34.409Z,15.90
2023-05-19T09:18:13.496Z,17.08
2023-05-19T09:23:08.453Z,15.65
2023-05-19T09:25:35.458Z,16.45
2023-05-19T09:28:02.374Z,20.15
2023-05-19T09:30:29.083Z,18.67
2023-05-19T09:32:56.012Z,17.50
2023-05-19T09:35:22.738Z,15.90
2023-05-19T09:37:49.383Z,16.27
2023-05-19T09:40:16.570Z,13.98
2023-05-19T09:42:44.438Z,14.82
2023-05-19T09:45:11.711Z,17.15
2023-05-19T09:47:41.320Z,19.40
2023-05-19T09:50:10.695Z,15.52
2023-05-19T09:52:43.854Z,17.75
2023-05-19T09:55:12.996Z,17.52
2023-05-19T09:57:41.027Z,15.05
2023-05-19T10:00:12.599Z,16.03
2023-05-19T10:02:46.323Z,15.57
2023-05-19T10:05:20.729Z,14.75
2023-05-19T10:07:51.637Z,14.82
2023-05-19T10:10:21.042Z,17.95
2023-05-19T10:12:49.009Z,16.77
2023-05-19T10:15:17.124Z,15.75
2023-05-19T10:17:45.112Z,17.85
2023-05-19T10:20:14.401Z,14.93
2023-05-19T10:22:43.002Z,15.20
2023-05-19T10:25:11.526Z,16.10
2023-05-19T10:27:44.274Z,15.85
2023-05-19T10:30:16.480Z,17.58
2023-05-19T10:32:46.904Z,15.35
2023-05-19T10:35:54.645Z,15.85
2023-05-19T10:38:33.715Z,16.20
2023-05-19T10:41:14.077Z,16.88
2023-05-19T10:43:59.976Z,15.30
2023-05-19T10:46:27.465Z,17.45
2023-05-19T10:48:54.667Z,20.83
2023-05-19T10:51:21.836Z,18.67
2023-05-19T10:53:50.341Z,17.63
2023-05-19T10:56:35.099Z,18.92
2023-05-19T10:59:03.564Z,18.73
2023-05-19T11:01:41.853Z,17.08
2023-05-19T11:04:14.118Z,21.08
2023-05-19T11:06:41.434Z,22.48
2023-05-19T11:09:16.070Z,17.98
2023-05-19T11:11:53.365Z,19.02
2023-05-19T11:14:23.315Z,20.52
2023-05-19T11:16:52.434Z,21.20
2023-05-19T11:19:28.736Z,20.75
2023-05-19T11:21:57.574Z,19.55
2023-05-19T11:24:34.357Z,18.73
2023-05-19T11:27:18.657Z,18.73
2023-05-19T11:29:45.635Z,18.77
2023-05-19T11:32:13.169Z,19.00
2023-05-19T11:34:40.638Z,20.05
2023-05-19T11:37:07.877Z,21.25
2023-05-19T11:39:35.352Z,20.23
2023-05-19T11:42:02.286Z,19.70
2023-05-19T11:44:28.918Z,19.27
2023-05-19T11:46:55.797Z,20.45
2023-05-19T11:49:22.617Z,19.52
2023-05-19T11:51:49.419Z,20.83
2023-05-19T11:54:16.266Z,18.90
2023-05-19T11:56:43.200Z,19.42
2023-05-19T11:59:10.188Z,23.67
2023-05-19T12:01:37.159Z,21.85
2023-05-19T12:04:09.371Z,25.58
2023-05-19T12:06:37.320Z,22.83
2023-05-19T12:09:05.680Z,25.67
2023-05-19T12:11:32.358Z,17.67
2023-05-19T12:13:59.342Z,27.45
2023-05-19T12:16:33.835Z,26.60
2023-05-19T12:19:00.794Z,24.08
2023-05-19T12:21:33.911Z,25.13
2023-05-19T12:24:02.176Z,25.73
2023-05-19T12:26:29.048Z,22.20
2023-05-19T12:28:55.806Z,24.13
2023-05-19T12:31:25.697Z,22.25
2023-05-19T12:33:52.486Z,20.35
2023-05-19T12:36:19.442Z,25.13
2023-05-19T12:38:47.887Z,27.17
2023-05-19T12:41:14.940Z,26.33
2023-05-19T12:43:41.651Z,24.88
2023-05-19T12:46:16.468Z,26.27
2023-05-19T12:48:44.563Z,23.52
2023-05-19T12:51:16.256Z,23.67
2023-05-19T12:53:42.984Z,23.55
2023-05-19T12:56:14.683Z,27.33
2023-05-19T12:58:46.128Z,24.48
2023-05-19T13:01:17.710Z,24.05
2023-05-19T13:03:45.045Z,23.48
2023-05-19T13:06:12.205Z,24.52
2023-05-19T13:08:41.936Z,22.35
2023-05-19T13:11:08.553Z,27.33
2023-05-19T13:13:35.295Z,28.08
2023-05-19T13:16:01.945Z,24.65
2023-05-19T13:18:32.246Z,23.17
2023-05-19T13:20:58.913Z,24.73
2023-05-19T13:23:26.463Z,24.25
2023-05-19T13:25:53.298Z,29.40
2023-05-19T13:28:20.048Z,26.27
2023-05-19T13:30:46.945Z,24.60
2023-05-19T13:33:13.799Z,24.35
2023-05-19T13:35:40.510Z,24.52
2023-05-19T13:38:10.306Z,23.40
2023-05-19T13:40:37.833Z,25.00
2023-05-19T13:43:05.377Z,25.95
2023-05-19T13:45:32.332Z,22.85
2023-05-19T13:47:59.271Z,26.15
2023-05-19T13:50:26.059Z,28.13
2023-05-19T13:52:52.761Z,22.95
2023-05-19T13:55:19.684Z,24.02
2023-05-19T13:57:46.360Z,23.80
2023-05-19T14:00:13.431Z,23.10
2023-05-19T14:02:40.795Z,61.20
2023-05-19T14:05:10.940Z,27.80
2023-05-19T14:07:37.632Z,26.92
2023-05-19T14:10:06.573Z,21.45
2023-05-19T14:12:46.994Z,25.95
2023-05-19T14:15:19.348Z,22.75
2023-05-19T14:17:46.490Z,24.15
2023-05-19T14:20:13.313Z,23.45
2023-05-19T14:22:40.057Z,24.48
2023-05-19T14:25:07.403Z,26.90
2023-05-19T14:27:34.203Z,25.55
2023-05-19T14:30:00.904Z,27.08
2023-05-19T14:32:30.101Z,23.98
2023-05-19T14:34:57.142Z,27.17
2023-05-19T14:37:24.351Z,23.73
2023-05-19T14:39:51.135Z,25.17
2023-05-19T14:42:17.816Z,23.73
2023-05-19T14:44:44.607Z,24.23
2023-05-19T14:47:12.624Z,22.83
2023-05-19T14:49:39.415Z,25.63
2023-05-19T14:52:06.365Z,25.30
2023-05-19T14:54:34.013Z,22.83
2023-05-19T14:57:01.733Z,22.73
2023-05-19T14:59:29.732Z,23.40
2023-05-19T15:01:56.496Z,24.83
2023-05-19T15:04:23.407Z,27.50
2023-05-19T15:06:58.187Z,25.15
2023-05-19T15:09:32.329Z,24.77
2023-05-19T15:12:01.385Z,24.13
2023-05-19T15:14:30.561Z,23.77
2023-05-19T15:16:58.173Z,23.33
2023-05-19T15:19:25.143Z,24.15
2023-05-19T15:21:51.931Z,22.20
2023-05-19T15:24:19.415Z,23.38
2023-05-19T15:26:46.129Z,21.70
2023-05-19T15:29:12.971Z,25.80
2023-05-19T15:31:39.870Z,21.15
2023-05-19T15:34:06.683Z,23.45
2023-05-19T15:36:33.285Z,25.08
2023-05-19T15:39:00.001Z,22.05
2023-05-19T15:41:26.910Z,22.40
2023-05-19T15:43:53.823Z,23.08
2023-05-19T15:46:20.739Z,22.15
2023-05-19T15:48:47.540Z,25.60
2023-05-19T15:51:14.321Z,24.40
2023-05-19T15:53:41.053Z,24.05
2023-05-19T15:56:07.767Z,23.13
2023-05-19T15:58:34.467Z,23.63
2023-05-19T16:01:01.423Z,22.08
2023-05-19T16:03:28.238Z,23.90
2023-05-19T16:05:55.051Z,22.02
2023-05-19T16:08:21.729Z,21.20
2023-05-19T16:10:48.560Z,22.17
2023-05-19T16:13:15.249Z,22.42
2023-05-19T16:15:42.082Z,22.65
2023-05-19T16:18:08.856Z,22.70
2023-05-19T16:20:35.680Z,26.38
2023-05-19T16:23:03.317Z,21.77
2023-05-19T16:25:30.290Z,23.27
2023-05-19T16:27:57.583Z,22.08
2023-05-19T16:30:26.525Z,26.17
2023-05-19T16:32:55.979Z,25.30
2023-05-19T16:35:23.925Z,23.17
2023-05-19T16:37:50.625Z,23.90
2023-05-19T16:40:17.384Z,22.92
2023-05-19T16:42:44.074Z,25.95
2023-05-19T16:45:10.972Z,23.50
2023-05-19T16:47:37.774Z,23.65
2023-05-19T16:50:04.678Z,24.30
2023-05-19T16:52:31.456Z,22.23
2023-05-19T16:54:58.125Z,24.13
2023-05-19T16:57:24.832Z,23.50
2023-05-19T16:59:51.760Z,24.38
2023-05-19T17:02:18.783Z,25.52
2023-05-19T17:04:45.528Z,22.42
2023-05-19T17:07:15.889Z,20.70
2023-05-19T17:09:43.611Z,21.25
2023-05-19T17:12:11.105Z,22.90
2023-05-19T17:14:37.880Z,21.83
2023-05-19T17:17:05.041Z,24.75
2023-05-19T17:19:31.958Z,24.30
2023-05-19T17:21:58.788Z,29.27
2023-05-19T17:24:25.904Z,28.05
2023-05-19T17:26:52.710Z,33.10
2023-05-19T17:29:19.352Z,28.42
2023-05-19T17:31:46.187Z,26.25
2023-05-19T17:34:12.904Z,25.20
2023-05-19T17:36:39.536Z,26.00
2023-05-19T17:39:06.239Z,27.50
2023-05-19T17:41:33.032Z,25.52
2023-05-19T17:43:59.713Z,26.88
2023-05-19T17:46:26.569Z,25.27
2023-05-19T17:48:53.244Z,25.55
2023-05-19T17:51:20.168Z,23.70
2023-05-19T17:53:47.099Z,27.35
2023-05-19T17:56:14.303Z,22.67
2023-05-19T17:58:41.622Z,25.35
2023-05-19T18:01:08.843Z,23.45
2023-05-19T18:03:38.433Z,27.77
2023-05-19T18:06:05.692Z,30.73
2023-05-19T18:08:32.652Z,29.23
2023-05-19T18:11:00.399Z,25.38
2023-05-19T18:13:27.044Z,25.42
2023-05-19T18:15:53.990Z,24.45
2023-05-19T18:18:20.671Z,22.33
2023-05-19T18:20:48.498Z,23.88
2023-05-19T18:23:15.184Z,29.63
2023-05-19T18:25:48.524Z,27.95
2023-05-19T18:28:15.133Z,28.50
2023-05-19T18:30:42.195Z,25.75
2023-05-19T18:33:09.005Z,24.77
2023-05-19T18:35:36.767Z,27.58
2023-05-19T18:38:03.435Z,24.10
2023-05-19T18:40:30.085Z,20.85
2023-05-19T18:42:56.694Z,24.50
2023-05-19T18:45:23.297Z,24.40
2023-05-19T18:47:50.008Z,24.63
2023-05-19T18:50:16.727Z,28.40
2023-05-19T18:52:43.331Z,24.98
2023-05-19T18:55:10.199Z,27.17
2023-05-19T18:57:36.957Z,23.27
2023-05-19T19:00:04.466Z,25.67
2023-05-19T19:02:31.445Z,23.00
2023-05-19T19:04:58.556Z,25.35
2023-05-19T19:07:27.152Z,26.08
2023-05-19T19:09:54.563Z,26.83
2023-05-19T19:12:21.363Z,23.42
2023-05-19T19:14:48.343Z,24.90
2023-05-19T19:17:15.425Z,25.83
2023-05-19T19:19:42.394Z,23.48
2023-05-19T19:22:09.272Z,25.42
2023-05-19T19:24:36.029Z,23.80
2023-05-19T19:27:02.908Z,25.48
2023-05-19T19:29:29.699Z,23.35
2023-05-19T19:31:56.544Z,22.15
2023-05-19T19:34:23.318Z,23.30
2023-05-19T19:36:50.032Z,22.75
2023-05-19T19:39:16.986Z,27.35
2023-05-19T19:41:43.864Z,26.70
2023-05-19T19:44:10.590Z,26.40
2023-05-19T19:46:37.358Z,26.58
2023-05-19T19:49:04.109Z,25.52
2023-05-19T19:51:31.759Z,24.05
2023-05-19T19:53:58.848Z,24.75
2023-05-19T19:56:27.687Z,24.55
2023-05-19T19:58:56.892Z,23.00
2023-05-19T20:01:27.964Z,22.85
2023-05-19T20:03:56.136Z,25.58
2023-05-19T20:06:23.314Z,26.48
2023-05-19T20:08:50.115Z,23.67
2023-05-19T20:11:16.875Z,24.20
2023-05-19T20:13:43.586Z,23.45
2023-05-19T20:16:10.402Z,24.85
2023-05-19T20:18:37.196Z,26.30
2023-05-19T20:21:03.947Z,24.33
2023-05-19T20:23:30.658Z,27.83
2023-05-19T20:26:10.884Z,24.55
2023-05-19T20:28:38.962Z,23.75
2023-05-19T20:31:06.534Z,23.70
2023-05-19T20:33:33.172Z,23.90
2023-05-19T20:35:59.953Z,26.67
2023-05-19T20:38:26.725Z,28.85
2023-05-19T20:40:54.868Z,26.88
2023-05-19T20:43:21.689Z,26.50
2023-05-19T20:45:48.548Z,26.00
2023-05-19T20:48:16.104Z,26.85
2023-05-19T20:50:42.996Z,26.83
2023-05-19T20:53:09.747Z,28.08
2023-05-19T20:55:36.404Z,27.00
2023-05-19T20:58:03.153Z,25.40
2023-05-19T21:00:30.749Z,30.33
2023-05-19T21:02:57.879Z,25.40
2023-05-19T21:05:24.900Z,25.50
2023-05-19T21:07:51.611Z,24.58
2023-05-19T21:10:18.518Z,25.92
2023-05-19T21:12:45.211Z,24.65
2023-05-19T21:15:14.972Z,26.38
2023-05-19T21:17:41.813Z,23.25
2023-05-19T21:20:09.218Z,25.80
2023-05-19T21:22:36.136Z,23.70
2023-05-19T21:25:02.916Z,22.88
2023-05-19T21:27:30.018Z,22.90
2023-05-19T21:29:56.770Z,24.00
2023-05-19T21:32:23.510Z,22.83
2023-05-19T21:34:50.405Z,25.02
2023-05-19T21:37:17.785Z,23.95
2023-05-19T21:39:44.927Z,21.55
2023-05-19T21:42:11.820Z,23.45
2023-05-19T21:44:38.580Z,25.67
2023-05-19T21:47:05.321Z,22.92
2023-05-19T21:49:31.980Z,23.00
2023-05-19T21:51:58.758Z,21.55
2023-05-19T21:54:25.518Z,21.92
2023-05-19T21:56:52.235Z,23.63
2023-05-19T21:59:19.687Z,22.15
2023-05-19T22:01:46.913Z,21.05
2023-05-19T22:04:16.467Z,20.80
2023-05-19T22:06:43.320Z,20.08
2023-05-19T22:09:10.422Z,20.73
2023-05-19T22:11:37.110Z,20.83
2023-05-19T22:14:03.793Z,21.48
2023-05-19T22:16:31.253Z,17.95
2023-05-19T22:18:58.182Z,18.70
2023-05-19T22:21:25.070Z,20.42
2023-05-19T22:23:52.468Z,20.63
2023-05-19T22:26:19.174Z,23.58
2023-05-19T22:28:45.879Z,20.33
2023-05-19T22:31:12.615Z,22.27
2023-05-19T22:33:39.269Z,22.83
2023-05-19T22:36:06.667Z,23.83
2023-05-19T22:38:33.307Z,20.85
2023-05-19T22:41:00.015Z,20.48
2023-05-19T22:43:26.636Z,21.08
2023-05-19T22:45:53.405Z,21.85
2023-05-19T22:48:20.041Z,22.70
2023-05-19T22:50:46.804Z,21.30
2023-05-19T22:53:13.443Z,23.25
2023-05-19T22:55:40.209Z,23.60
2023-05-19T22:58:06.887Z,20.17
2023-05-19T23:00:33.540Z,24.70
2023-05-19T23:03:00.325Z,22.10
2023-05-19T23:05:27.094Z,22.05
2023-05-19T23:07:53.811Z,23.10
2023-05-19T23:10:20.615Z,21.95
2023-05-19T23:12:47.333Z,22.20
2023-05-19T23:15:14.036Z,23.75
2023-05-19T23:17:40.676Z,22.45
2023-05-19T23:20:08.138Z,21.98
2023-05-19T23:22:34.781Z,22.60
2023-05-19T23:25:05.806Z,21.35
2023-05-19T23:27:32.465Z,21.80
2023-05-19T23:29:59.118Z,19.33
2023-05-19T23:32:25.840Z,21.45
2023-05-19T23:34:52.545Z,20.45
2023-05-19T23:37:19.219Z,20.20
2023-05-19T23:39:45.881Z,21.45
2023-05-19T23:42:13.305Z,19.38
2023-05-19T23:44:40.031Z,20.17
2023-05-19T23:47:07.073Z,20.23
2023-05-19T23:49:34.015Z,18.35
2023-05-19T23:52:00.691Z,19.42
2023-05-19T23:54:27.435Z,21.38
2023-05-19T23:56:55.923Z,20.75
2023-05-19T23:59:22.783Z,21.45
